Historique des mesures à Cassis (13260), France
Quotidien Résumé Mai 20, 2017 Unités:  Métrique    US   Métrique/US
« Précédent (Jour)
Suivant (Jour) »
Quotidien Hebdomadaire Mensuel Annuel Période au choix
  Maximum: Minimum: Moyenne:
Température: TemperatureC °C 13.3 °C 17.2 °C
Point de rosée: DewpointC °C 3.9 °C 6.2 °C
Humidité: Humidity % 36 % 46 %
Vitesse du vent: 0 km/h 10.3 km/h 24.9 km/h
Rafales: 0 km/h - -
Vent:- - SSW
Pression: PressurehPa hPa 1014.8 hPa -
Précipitations: 0.0 mm    
Historical Graphs
 
 
Mesures pour : Mai 20, 2017
Heure Temperature Point de rosée Pression Vent Vitesse du vent Rafales Humidité Pluie (par heure) Conditions
TemperatureC °C DewpointC °C PressurehPa hPa Calm     Humidity % HourlyPrecipMM mm SoftwareType W/m2
00:10 16.5 °C 7.4 °C 1014.8 hPa North 22.5 km/h 41.7 km/h 55 % 0.0 mm open2300-1.11 W/m2
01:10 15.9 °C 7.1 °C 1014.8 hPa WNW 14.5 km/h 37.5 km/h 56 % 0.0 mm open2300-1.11 W/m2
02:10 15.2 °C 6.9 °C 1014.8 hPa NW 27.2 km/h 27.2 km/h 58 % 0.0 mm open2300-1.11 W/m2
03:10 14.7 °C 6.5 °C 1014.8 hPa NNE 15 km/h 29.5 km/h 58 % 0.0 mm open2300-1.11 W/m2
04:10 14.1 °C 6.7 °C 1014.8 hPa North 10.3 km/h 19.2 km/h 61 % 0.0 mm open2300-1.11 W/m2
05:10 13.5 °C 6.3 °C 1015.1 hPa NW 27.2 km/h 33.6 km/h 62 % 0.0 mm open2300-1.11 W/m2
06:10 13.3 °C 6.4 °C 1015.5 hPa NW 27.7 km/h 33.2 km/h 63 % 0.0 mm open2300-1.11 W/m2
07:10 13.3 °C 6.4 °C 1015.8 hPa NNW 21.6 km/h 24.8 km/h 63 % 0.0 mm open2300-1.11 W/m2
08:10 15.9 °C 6.8 °C 1016.1 hPa North 13.2 km/h 14.5 km/h 55 % 0.0 mm open2300-1.11 W/m2
09:10 14.8 °C 5.8 °C 1016.1 hPa NNW 32.3 km/h 32.3 km/h 55 % 0.0 mm open2300-1.11 W/m2
10:10 15.9 °C 6.6 °C 1016.1 hPa North 29.5 km/h 54.4 km/h 54 % 0.0 mm open2300-1.11 W/m2
11:10 18.4 °C 8.1 °C 1016.5 hPa West 12.2 km/h 19.2 km/h 51 % 0.0 mm open2300-1.11 W/m2
12:10 19.3 °C 7.0 °C 1016.5 hPa NW 11.6 km/h 30.7 km/h 45 % 0.0 mm open2300-1.11 W/m2
13:10 20.2 °C 7.2 °C 1016.1 hPa NW 44.6 km/h 44.6 km/h 43 % 0.0 mm open2300-1.11 W/m2
14:10 20.6 °C 6.6 °C 1016.1 hPa North 17.4 km/h 27.2 km/h 40 % 0.0 mm open2300-1.11 W/m2
15:10 21.3 °C 6.8 °C 1015.8 hPa NW 30.1 km/h 54.9 km/h 39 % 0.0 mm open2300-1.11 W/m2
16:10 21.6 °C 6.6 °C 1015.8 hPa NNE 27.7 km/h 50.5 km/h 38 % 0.0 mm open2300-1.11 W/m2
17:10 22.1 °C 6.7 °C 1015.5 hPa West 62 km/h 62 km/h 37 % 0.0 mm open2300-1.11 W/m2
18:10 22.1 °C 6.7 °C 1015.5 hPa NNW 29.5 km/h 41.7 km/h 37 % 0.0 mm open2300-1.11 W/m2
19:10 21.8 °C 6.8 °C 1015.5 hPa NW 35.2 km/h 35.2 km/h 38 % 0.0 mm open2300-1.11 W/m2
20:10 21.1 °C 5.3 °C 1015.8 hPa North 40.7 km/h 40.7 km/h 36 % 0.0 mm open2300-1.11 W/m2
21:10 20.1 °C 4.9 °C 1016.1 hPa NNW 14 km/h 16.3 km/h 37 % 0.0 mm open2300-1.11 W/m2
22:10 19.4 °C 4.7 °C 1016.1 hPa NNW 29.5 km/h 29.5 km/h 38 % 0.0 mm open2300-1.11 W/m2
23:11 18.6 °C 3.9 °C 1015.1 hPa North 27.2 km/h 37.5 km/h 38 % 0.0 mm open2300-1.11 W/m2
Observations météo à CASSIS
WU-History script by Weather Underground - 1 mb